Ballinamallard, United Kingdom
Current Conditions -  °F | °C
As of 4:00 PM on Thursday 27 Nov 2014 (Local Time) from EISG Reporting Station
Overcast Overcast  
Wind Chill: 39°   Ceiling: 4500
Heat Index: 45°   Visibility: 6mi
Dew Point: 39°   Wind: 12mph
Humidity: 81%   Direction: 110°ESE
Pressure: 29.41"   Gusts: NA
Location:  54.4°N, 7.58°W
Report Text: EISG 271600Z 11010KT 9999 OVC045 07/04 Q0996
Loading
Personal Weather Stations






























Interactive Weather Map New forecast layout! Learn more

10-Day Weather Forecast

Advertisements
Track Severe Weather on mobile